sensor_id;sensor_type;location;lat;lon;timestamp;temperature;humidity
12166;DHT22;6146;48.128;11.476;2022-07-23T00:01:55;23.90;96.10
12166;DHT22;6146;48.128;11.476;2022-07-23T00:04:21;23.90;95.90
12166;DHT22;6146;48.128;11.476;2022-07-23T00:06:46;23.90;95.80
12166;DHT22;6146;48.128;11.476;2022-07-23T00:09:12;23.80;95.70
12166;DHT22;6146;48.128;11.476;2022-07-23T00:11:38;23.80;95.70
12166;DHT22;6146;48.128;11.476;2022-07-23T00:14:03;23.80;95.30
12166;DHT22;6146;48.128;11.476;2022-07-23T00:16:29;23.80;95.30
12166;DHT22;6146;48.128;11.476;2022-07-23T00:18:55;23.70;95.50
12166;DHT22;6146;48.128;11.476;2022-07-23T00:21:20;23.80;95.30
12166;DHT22;6146;48.128;11.476;2022-07-23T00:23:46;23.80;95.30
12166;DHT22;6146;48.128;11.476;2022-07-23T00:26:11;23.70;95.70
12166;DHT22;6146;48.128;11.476;2022-07-23T00:28:37;23.60;95.80
12166;DHT22;6146;48.128;11.476;2022-07-23T00:31:03;23.60;96.30
12166;DHT22;6146;48.128;11.476;2022-07-23T00:33:28;23.50;96.40
12166;DHT22;6146;48.128;11.476;2022-07-23T00:35:54;23.50;96.50
12166;DHT22;6146;48.128;11.476;2022-07-23T00:38:19;23.50;96.40
12166;DHT22;6146;48.128;11.476;2022-07-23T00:40:45;23.50;96.60
12166;DHT22;6146;48.128;11.476;2022-07-23T00:43:11;23.40;96.80
12166;DHT22;6146;48.128;11.476;2022-07-23T00:45:36;23.40;97.00
12166;DHT22;6146;48.128;11.476;2022-07-23T00:48:02;23.40;97.30
12166;DHT22;6146;48.128;11.476;2022-07-23T00:50:29;23.40;97.20
12166;DHT22;6146;48.128;11.476;2022-07-23T00:52:55;23.40;97.30
12166;DHT22;6146;48.128;11.476;2022-07-23T00:55:21;23.40;97.50
12166;DHT22;6146;48.128;11.476;2022-07-23T00:57:47;23.40;97.70
12166;DHT22;6146;48.128;11.476;2022-07-23T01:00:14;23.50;98.00
12166;DHT22;6146;48.128;11.476;2022-07-23T01:02:40;23.40;98.30
12166;DHT22;6146;48.128;11.476;2022-07-23T01:05:06;23.30;98.60
12166;DHT22;6146;48.128;11.476;2022-07-23T01:07:33;23.30;99.10
12166;DHT22;6146;48.128;11.476;2022-07-23T01:09:58;23.20;99.60
12166;DHT22;6146;48.128;11.476;2022-07-23T01:12:24;23.30;99.90
12166;DHT22;6146;48.128;11.476;2022-07-23T01:14:59;23.30;99.90
12166;DHT22;6146;48.128;11.476;2022-07-23T01:17:25;23.30;99.90
12166;DHT22;6146;48.128;11.476;2022-07-23T01:19:51;23.30;99.90
12166;DHT22;6146;48.128;11.476;2022-07-23T01:22:19;23.40;99.40
12166;DHT22;6146;48.128;11.476;2022-07-23T01:24:45;23.30;96.90
12166;DHT22;6146;48.128;11.476;2022-07-23T01:27:10;22.90;96.80
12166;DHT22;6146;48.128;11.476;2022-07-23T01:29:38;22.20;99.30
12166;DHT22;6146;48.128;11.476;2022-07-23T01:32:05;21.50;99.90
12166;DHT22;6146;48.128;11.476;2022-07-23T01:34:30;21.00;99.90
12166;DHT22;6146;48.128;11.476;2022-07-23T01:36:56;20.70;99.90
12166;DHT22;6146;48.128;11.476;2022-07-23T01:39:21;20.40;99.90
12166;DHT22;6146;48.128;11.476;2022-07-23T01:41:47;20.10;99.90
12166;DHT22;6146;48.128;11.476;2022-07-23T01:44:13;19.90;99.90
12166;DHT22;6146;48.128;11.476;2022-07-23T01:46:38;19.70;99.90
12166;DHT22;6146;48.128;11.476;2022-07-23T01:49:04;19.50;99.90
12166;DHT22;6146;48.128;11.476;2022-07-23T01:51:30;19.30;99.90
12166;DHT22;6146;48.128;11.476;2022-07-23T01:53:55;19.20;99.90
12166;DHT22;6146;48.128;11.476;2022-07-23T01:56:21;19.20;99.90
12166;DHT22;6146;48.128;11.476;2022-07-23T01:58:48;19.20;99.90
12166;DHT22;6146;48.128;11.476;2022-07-23T02:01:14;19.10;99.90
12166;DHT22;6146;48.128;11.476;2022-07-23T02:03:39;19.10;99.90
12166;DHT22;6146;48.128;11.476;2022-07-23T02:06:05;19.10;99.90
12166;DHT22;6146;48.128;11.476;2022-07-23T02:08:30;19.20;99.90
12166;DHT22;6146;48.128;11.476;2022-07-23T02:10:56;19.30;99.90
12166;DHT22;6146;48.128;11.476;2022-07-23T02:13:22;19.20;99.90
12166;DHT22;6146;48.128;11.476;2022-07-23T02:15:47;19.30;99.90
12166;DHT22;6146;48.128;11.476;2022-07-23T02:18:13;19.30;99.90
12166;DHT22;6146;48.128;11.476;2022-07-23T02:20:39;19.30;99.90
12166;DHT22;6146;48.128;11.476;2022-07-23T02:23:05;19.30;99.90
12166;DHT22;6146;48.128;11.476;2022-07-23T02:25:31;19.30;99.90
12166;DHT22;6146;48.128;11.476;2022-07-23T02:27:56;19.30;99.90
12166;DHT22;6146;48.128;11.476;2022-07-23T02:30:22;19.30;99.90
12166;DHT22;6146;48.128;11.476;2022-07-23T02:32:47;19.40;99.90
12166;DHT22;6146;48.128;11.476;2022-07-23T02:35:13;19.30;99.90
12166;DHT22;6146;48.128;11.476;2022-07-23T02:37:39;19.30;99.90
12166;DHT22;6146;48.128;11.476;2022-07-23T02:40:05;19.30;99.90
12166;DHT22;6146;48.128;11.476;2022-07-23T02:42:30;19.30;99.90
12166;DHT22;6146;48.128;11.476;2022-07-23T02:44:56;19.30;99.90
12166;DHT22;6146;48.128;11.476;2022-07-23T02:47:22;19.20;99.90
12166;DHT22;6146;48.128;11.476;2022-07-23T02:49:47;19.20;99.90
12166;DHT22;6146;48.128;11.476;2022-07-23T02:52:13;19.30;99.90
12166;DHT22;6146;48.128;11.476;2022-07-23T02:54:38;19.30;99.90
12166;DHT22;6146;48.128;11.476;2022-07-23T02:57:04;19.40;99.90
12166;DHT22;6146;48.128;11.476;2022-07-23T02:59:30;19.30;99.90
12166;DHT22;6146;48.128;11.476;2022-07-23T03:01:56;19.20;99.90
12166;DHT22;6146;48.128;11.476;2022-07-23T03:04:21;19.10;99.90
12166;DHT22;6146;48.128;11.476;2022-07-23T03:06:47;19.00;99.90
12166;DHT22;6146;48.128;11.476;2022-07-23T03:09:13;18.90;99.90
12166;DHT22;6146;48.128;11.476;2022-07-23T03:11:38;18.90;99.90
12166;DHT22;6146;48.128;11.476;2022-07-23T03:14:04;18.90;99.90
12166;DHT22;6146;48.128;11.476;2022-07-23T03:16:31;18.80;99.90
12166;DHT22;6146;48.128;11.476;2022-07-23T03:18:56;18.90;99.90
12166;DHT22;6146;48.128;11.476;2022-07-23T03:21:22;18.80;99.90
12166;DHT22;6146;48.128;11.476;2022-07-23T03:23:47;18.90;99.90
12166;DHT22;6146;48.128;11.476;2022-07-23T03:26:13;18.90;99.90
12166;DHT22;6146;48.128;11.476;2022-07-23T03:28:39;18.80;99.90
12166;DHT22;6146;48.128;11.476;2022-07-23T03:31:04;18.70;99.90
12166;DHT22;6146;48.128;11.476;2022-07-23T03:33:30;18.70;99.90
12166;DHT22;6146;48.128;11.476;2022-07-23T03:35:55;18.60;99.90
12166;DHT22;6146;48.128;11.476;2022-07-23T03:38:21;18.50;99.90
12166;DHT22;6146;48.128;11.476;2022-07-23T03:40:46;18.50;99.90
12166;DHT22;6146;48.128;11.476;2022-07-23T03:43:12;18.50;99.90
12166;DHT22;6146;48.128;11.476;2022-07-23T03:45:37;18.50;99.90
12166;DHT22;6146;48.128;11.476;2022-07-23T03:48:03;18.60;99.90
12166;DHT22;6146;48.128;11.476;2022-07-23T03:50:29;18.70;99.90
12166;DHT22;6146;48.128;11.476;2022-07-23T03:52:54;18.80;99.90
12166;DHT22;6146;48.128;11.476;2022-07-23T03:55:20;18.80;99.90
12166;DHT22;6146;48.128;11.476;2022-07-23T03:57:45;18.90;99.90
12166;DHT22;6146;48.128;11.476;2022-07-23T04:00:11;19.00;99.90
12166;DHT22;6146;48.128;11.476;2022-07-23T04:02:39;19.00;99.90
12166;DHT22;6146;48.128;11.476;2022-07-23T04:05:05;19.00;99.90
12166;DHT22;6146;48.128;11.476;2022-07-23T04:07:31;19.10;99.90
12166;DHT22;6146;48.128;11.476;2022-07-23T04:09:57;19.10;99.90
12166;DHT22;6146;48.128;11.476;2022-07-23T04:12:23;19.00;99.90
12166;DHT22;6146;48.128;11.476;2022-07-23T04:14:49;19.10;99.90
12166;DHT22;6146;48.128;11.476;2022-07-23T04:17:14;19.10;99.90
12166;DHT22;6146;48.128;11.476;2022-07-23T04:19:40;19.20;99.90
12166;DHT22;6146;48.128;11.476;2022-07-23T04:22:12;19.20;99.90
12166;DHT22;6146;48.128;11.476;2022-07-23T04:24:38;19.20;99.90
12166;DHT22;6146;48.128;11.476;2022-07-23T04:27:04;19.20;99.90
12166;DHT22;6146;48.128;11.476;2022-07-23T04:29:30;19.20;99.90
12166;DHT22;6146;48.128;11.476;2022-07-23T04:31:55;19.20;99.90
12166;DHT22;6146;48.128;11.476;2022-07-23T04:34:21;19.20;99.90
12166;DHT22;6146;48.128;11.476;2022-07-23T04:36:47;19.20;99.90
12166;DHT22;6146;48.128;11.476;2022-07-23T04:39:13;19.20;99.90
12166;DHT22;6146;48.128;11.476;2022-07-23T04:41:39;19.30;99.90
12166;DHT22;6146;48.128;11.476;2022-07-23T04:44:04;19.30;99.90
12166;DHT22;6146;48.128;11.476;2022-07-23T04:46:30;19.30;99.90
12166;DHT22;6146;48.128;11.476;2022-07-23T04:48:56;19.40;99.90
12166;DHT22;6146;48.128;11.476;2022-07-23T04:51:21;19.40;99.90
12166;DHT22;6146;48.128;11.476;2022-07-23T04:53:47;19.50;99.90
12166;DHT22;6146;48.128;11.476;2022-07-23T04:56:12;19.60;99.90
12166;DHT22;6146;48.128;11.476;2022-07-23T04:58:38;19.60;99.90
12166;DHT22;6146;48.128;11.476;2022-07-23T05:01:04;19.60;99.90
12166;DHT22;6146;48.128;11.476;2022-07-23T05:03:29;19.70;99.90
12166;DHT22;6146;48.128;11.476;2022-07-23T05:05:55;19.70;99.90
12166;DHT22;6146;48.128;11.476;2022-07-23T05:08:21;19.80;99.90
12166;DHT22;6146;48.128;11.476;2022-07-23T05:10:46;19.80;99.90
12166;DHT22;6146;48.128;11.476;2022-07-23T05:13:14;19.90;99.90
12166;DHT22;6146;48.128;11.476;2022-07-23T05:15:41;20.00;99.90
12166;DHT22;6146;48.128;11.476;2022-07-23T05:18:06;20.10;99.90
12166;DHT22;6146;48.128;11.476;2022-07-23T05:20:32;20.00;99.90
12166;DHT22;6146;48.128;11.476;2022-07-23T05:22:57;20.10;99.90
12166;DHT22;6146;48.128;11.476;2022-07-23T05:25:23;20.10;99.90
12166;DHT22;6146;48.128;11.476;2022-07-23T05:27:49;20.00;99.90
12166;DHT22;6146;48.128;11.476;2022-07-23T05:30:14;20.00;99.90
12166;DHT22;6146;48.128;11.476;2022-07-23T05:32:40;19.90;99.90
12166;DHT22;6146;48.128;11.476;2022-07-23T05:35:06;20.00;99.90
12166;DHT22;6146;48.128;11.476;2022-07-23T05:37:32;20.00;99.90
12166;DHT22;6146;48.128;11.476;2022-07-23T05:40:06;20.10;99.90
12166;DHT22;6146;48.128;11.476;2022-07-23T05:42:37;20.10;99.90
12166;DHT22;6146;48.128;11.476;2022-07-23T05:45:03;20.10;99.90
12166;DHT22;6146;48.128;11.476;2022-07-23T05:47:45;20.20;99.90
12166;DHT22;6146;48.128;11.476;2022-07-23T05:50:12;20.20;99.90
12166;DHT22;6146;48.128;11.476;2022-07-23T05:52:38;20.10;99.90
12166;DHT22;6146;48.128;11.476;2022-07-23T05:55:05;20.10;99.90
12166;DHT22;6146;48.128;11.476;2022-07-23T05:57:30;20.10;99.90
12166;DHT22;6146;48.128;11.476;2022-07-23T05:59:56;20.00;99.90
12166;DHT22;6146;48.128;11.476;2022-07-23T06:02:21;20.00;99.90
12166;DHT22;6146;48.128;11.476;2022-07-23T06:04:47;20.00;99.90
12166;DHT22;6146;48.128;11.476;2022-07-23T06:07:13;20.00;99.90
12166;DHT22;6146;48.128;11.476;2022-07-23T06:09:38;20.00;99.90
12166;DHT22;6146;48.128;11.476;2022-07-23T06:12:04;20.00;99.90
12166;DHT22;6146;48.128;11.476;2022-07-23T06:14:30;20.00;99.90
12166;DHT22;6146;48.128;11.476;2022-07-23T06:16:55;20.10;99.90
12166;DHT22;6146;48.128;11.476;2022-07-23T06:19:21;20.10;99.90
12166;DHT22;6146;48.128;11.476;2022-07-23T06:21:46;20.10;99.90
12166;DHT22;6146;48.128;11.476;2022-07-23T06:24:12;20.00;99.90
12166;DHT22;6146;48.128;11.476;2022-07-23T06:26:38;20.00;99.90
12166;DHT22;6146;48.128;11.476;2022-07-23T06:29:03;20.10;99.90
12166;DHT22;6146;48.128;11.476;2022-07-23T06:31:29;20.10;99.90
12166;DHT22;6146;48.128;11.476;2022-07-23T06:33:54;20.00;99.90
12166;DHT22;6146;48.128;11.476;2022-07-23T06:36:20;20.00;99.90
12166;DHT22;6146;48.128;11.476;2022-07-23T06:38:46;20.00;99.90
12166;DHT22;6146;48.128;11.476;2022-07-23T06:41:11;20.20;99.90
12166;DHT22;6146;48.128;11.476;2022-07-23T06:43:37;20.20;99.90
12166;DHT22;6146;48.128;11.476;2022-07-23T06:46:03;20.30;99.90
12166;DHT22;6146;48.128;11.476;2022-07-23T06:48:28;20.40;99.90
12166;DHT22;6146;48.128;11.476;2022-07-23T06:50:54;20.50;99.90
12166;DHT22;6146;48.128;11.476;2022-07-23T06:53:20;20.60;99.90
12166;DHT22;6146;48.128;11.476;2022-07-23T06:55:46;20.80;99.90
12166;DHT22;6146;48.128;11.476;2022-07-23T06:58:12;20.90;99.90
12166;DHT22;6146;48.128;11.476;2022-07-23T07:00:39;20.80;99.90
12166;DHT22;6146;48.128;11.476;2022-07-23T07:03:05;20.90;99.90
12166;DHT22;6146;48.128;11.476;2022-07-23T07:05:30;20.90;99.90
12166;DHT22;6146;48.128;11.476;2022-07-23T07:07:56;21.00;99.90
12166;DHT22;6146;48.128;11.476;2022-07-23T07:10:22;21.10;99.90
12166;DHT22;6146;48.128;11.476;2022-07-23T07:12:48;21.00;99.90
12166;DHT22;6146;48.128;11.476;2022-07-23T07:15:13;21.10;99.90
12166;DHT22;6146;48.128;11.476;2022-07-23T07:17:39;21.10;99.90
12166;DHT22;6146;48.128;11.476;2022-07-23T07:20:05;21.20;99.90
12166;DHT22;6146;48.128;11.476;2022-07-23T07:22:31;21.30;99.90
12166;DHT22;6146;48.128;11.476;2022-07-23T07:24:57;21.50;99.90
12166;DHT22;6146;48.128;11.476;2022-07-23T07:27:22;21.60;99.90
12166;DHT22;6146;48.128;11.476;2022-07-23T07:29:48;21.70;99.90
12166;DHT22;6146;48.128;11.476;2022-07-23T07:32:13;21.70;99.90
12166;DHT22;6146;48.128;11.476;2022-07-23T07:34:39;21.70;99.90
12166;DHT22;6146;48.128;11.476;2022-07-23T07:37:05;21.80;99.90
12166;DHT22;6146;48.128;11.476;2022-07-23T07:39:30;21.70;99.90
12166;DHT22;6146;48.128;11.476;2022-07-23T07:41:56;21.70;99.90
12166;DHT22;6146;48.128;11.476;2022-07-23T07:44:21;21.60;99.90
12166;DHT22;6146;48.128;11.476;2022-07-23T07:46:47;21.60;99.90
12166;DHT22;6146;48.128;11.476;2022-07-23T07:49:13;21.50;99.90
12166;DHT22;6146;48.128;11.476;2022-07-23T07:51:38;21.50;99.90
12166;DHT22;6146;48.128;11.476;2022-07-23T07:54:04;21.40;99.90
12166;DHT22;6146;48.128;11.476;2022-07-23T07:56:29;21.40;99.90
12166;DHT22;6146;48.128;11.476;2022-07-23T07:58:55;21.40;99.90
12166;DHT22;6146;48.128;11.476;2022-07-23T08:01:21;21.50;99.90
12166;DHT22;6146;48.128;11.476;2022-07-23T08:03:47;21.60;99.90
12166;DHT22;6146;48.128;11.476;2022-07-23T08:06:12;21.60;99.90
12166;DHT22;6146;48.128;11.476;2022-07-23T08:08:38;21.60;99.90
12166;DHT22;6146;48.128;11.476;2022-07-23T08:11:04;21.70;99.90
12166;DHT22;6146;48.128;11.476;2022-07-23T08:13:29;21.80;99.90
12166;DHT22;6146;48.128;11.476;2022-07-23T08:15:55;21.80;99.90
12166;DHT22;6146;48.128;11.476;2022-07-23T08:18:20;21.80;99.90
12166;DHT22;6146;48.128;11.476;2022-07-23T08:20:46;21.90;99.90
12166;DHT22;6146;48.128;11.476;2022-07-23T08:23:12;21.90;99.90
12166;DHT22;6146;48.128;11.476;2022-07-23T08:25:40;22.00;99.90
12166;DHT22;6146;48.128;11.476;2022-07-23T08:28:08;22.10;99.90
12166;DHT22;6146;48.128;11.476;2022-07-23T08:30:35;22.10;99.90
12166;DHT22;6146;48.128;11.476;2022-07-23T08:35:33;22.60;99.90
12166;DHT22;6146;48.128;11.476;2022-07-23T08:38:02;22.90;99.90
12166;DHT22;6146;48.128;11.476;2022-07-23T08:40:30;23.40;99.90
12166;DHT22;6146;48.128;11.476;2022-07-23T08:42:57;23.70;99.90
12166;DHT22;6146;48.128;11.476;2022-07-23T08:45:24;23.80;99.90
12166;DHT22;6146;48.128;11.476;2022-07-23T08:47:56;23.80;99.90
12166;DHT22;6146;48.128;11.476;2022-07-23T08:50:23;24.00;99.90
12166;DHT22;6146;48.128;11.476;2022-07-23T08:52:51;24.10;99.90
12166;DHT22;6146;48.128;11.476;2022-07-23T08:55:17;24.10;99.90
12166;DHT22;6146;48.128;11.476;2022-07-23T08:57:44;23.90;99.90
12166;DHT22;6146;48.128;11.476;2022-07-23T09:00:10;23.90;99.90
12166;DHT22;6146;48.128;11.476;2022-07-23T09:02:40;23.70;99.90
12166;DHT22;6146;48.128;11.476;2022-07-23T09:05:07;23.60;99.90
12166;DHT22;6146;48.128;11.476;2022-07-23T09:07:32;23.60;99.90
12166;DHT22;6146;48.128;11.476;2022-07-23T09:10:07;23.70;99.90
12166;DHT22;6146;48.128;11.476;2022-07-23T09:12:33;23.70;99.90
12166;DHT22;6146;48.128;11.476;2022-07-23T09:15:07;23.80;99.90
12166;DHT22;6146;48.128;11.476;2022-07-23T09:17:38;24.10;99.90
12166;DHT22;6146;48.128;11.476;2022-07-23T09:20:12;24.40;99.90
12166;DHT22;6146;48.128;11.476;2022-07-23T09:22:38;24.70;99.90
12166;DHT22;6146;48.128;11.476;2022-07-23T09:25:13;25.60;99.90
12166;DHT22;6146;48.128;11.476;2022-07-23T09:27:57;27.20;99.90
12166;DHT22;6146;48.128;11.476;2022-07-23T09:30:29;30.00;99.90
12166;DHT22;6146;48.128;11.476;2022-07-23T09:33:14;32.80;95.70
12166;DHT22;6146;48.128;11.476;2022-07-23T09:35:54;35.20;83.90
12166;DHT22;6146;48.128;11.476;2022-07-23T09:38:22;36.20;69.90
12166;DHT22;6146;48.128;11.476;2022-07-23T09:41:08;36.70;62.80
12166;DHT22;6146;48.128;11.476;2022-07-23T09:43:34;37.20;60.20
12166;DHT22;6146;48.128;11.476;2022-07-23T09:48:49;38.40;57.50
12166;DHT22;6146;48.128;11.476;2022-07-23T09:51:14;38.50;53.10
12166;DHT22;6146;48.128;11.476;2022-07-23T09:53:43;37.70;51.90
12166;DHT22;6146;48.128;11.476;2022-07-23T09:56:11;37.00;52.20
12166;DHT22;6146;48.128;11.476;2022-07-23T09:58:40;35.60;53.20
12166;DHT22;6146;48.128;11.476;2022-07-23T10:01:12;34.00;55.60
12166;DHT22;6146;48.128;11.476;2022-07-23T10:03:39;32.50;58.70
12166;DHT22;6146;48.128;11.476;2022-07-23T10:06:05;32.00;61.30
12166;DHT22;6146;48.128;11.476;2022-07-23T10:08:32;31.40;61.80
12166;DHT22;6146;48.128;11.476;2022-07-23T10:10:58;31.20;65.30
12166;DHT22;6146;48.128;11.476;2022-07-23T10:13:25;31.50;67.00
12166;DHT22;6146;48.128;11.476;2022-07-23T10:16:10;32.70;61.60
12166;DHT22;6146;48.128;11.476;2022-07-23T10:18:36;33.00;59.10
12166;DHT22;6146;48.128;11.476;2022-07-23T10:21:06;33.40;59.00
12166;DHT22;6146;48.128;11.476;2022-07-23T10:23:41;34.00;58.00
12166;DHT22;6146;48.128;11.476;2022-07-23T10:26:30;34.50;57.00
12166;DHT22;6146;48.128;11.476;2022-07-23T10:34:44;35.70;50.20
12166;DHT22;6146;48.128;11.476;2022-07-23T10:39:41;33.80;53.80
12166;DHT22;6146;48.128;11.476;2022-07-23T10:42:14;33.10;54.60
12166;DHT22;6146;48.128;11.476;2022-07-23T10:44:47;32.30;55.50
12166;DHT22;6146;48.128;11.476;2022-07-23T10:47:27;31.70;56.60
12166;DHT22;6146;48.128;11.476;2022-07-23T10:50:35;31.00;58.20
12166;DHT22;6146;48.128;11.476;2022-07-23T10:53:14;30.70;58.90
12166;DHT22;6146;48.128;11.476;2022-07-23T10:55:42;30.60;60.10
12166;DHT22;6146;48.128;11.476;2022-07-23T10:58:08;30.70;61.00
12166;DHT22;6146;48.128;11.476;2022-07-23T11:00:35;31.60;59.10
12166;DHT22;6146;48.128;11.476;2022-07-23T11:03:29;31.80;58.20
12166;DHT22;6146;48.128;11.476;2022-07-23T11:05:51;31.40;58.60
12166;DHT22;6146;48.128;11.476;2022-07-23T11:08:20;30.50;60.20
12166;DHT22;6146;48.128;11.476;2022-07-23T11:10:56;30.10;62.20
12166;DHT22;6146;48.128;11.476;2022-07-23T11:13:36;29.80;63.80
12166;DHT22;6146;48.128;11.476;2022-07-23T11:24:06;28.80;66.70
12166;DHT22;6146;48.128;11.476;2022-07-23T11:32:08;27.50;69.50
12166;DHT22;6146;48.128;11.476;2022-07-23T11:34:41;27.10;71.30
12166;DHT22;6146;48.128;11.476;2022-07-23T11:37:12;26.90;72.80
12166;DHT22;6146;48.128;11.476;2022-07-23T11:39:56;26.80;74.10
12166;DHT22;6146;48.128;11.476;2022-07-23T11:42:22;26.80;75.70
12166;DHT22;6146;48.128;11.476;2022-07-23T11:44:50;26.80;75.50
12166;DHT22;6146;48.128;11.476;2022-07-23T11:47:22;26.70;76.20
12166;DHT22;6146;48.128;11.476;2022-07-23T11:50:03;26.70;76.70
12166;DHT22;6146;48.128;11.476;2022-07-23T11:52:29;26.70;77.40
12166;DHT22;6146;48.128;11.476;2022-07-23T11:57:32;26.60;78.40
12166;DHT22;6146;48.128;11.476;2022-07-23T12:00:18;26.60;77.50
12166;DHT22;6146;48.128;11.476;2022-07-23T12:02:46;26.50;79.40
12166;DHT22;6146;48.128;11.476;2022-07-23T12:05:14;26.50;79.70
12166;DHT22;6146;48.128;11.476;2022-07-23T12:07:44;26.30;80.80
12166;DHT22;6146;48.128;11.476;2022-07-23T12:10:34;26.40;81.30
12166;DHT22;6146;48.128;11.476;2022-07-23T12:13:11;26.50;82.00
12166;DHT22;6146;48.128;11.476;2022-07-23T12:15:39;26.60;82.00
12166;DHT22;6146;48.128;11.476;2022-07-23T12:18:07;26.60;82.20
12166;DHT22;6146;48.128;11.476;2022-07-23T12:20:36;26.70;82.40
12166;DHT22;6146;48.128;11.476;2022-07-23T12:23:04;26.80;83.00
12166;DHT22;6146;48.128;11.476;2022-07-23T12:25:32;26.60;82.00
12166;DHT22;6146;48.128;11.476;2022-07-23T12:30:32;26.10;84.30
12166;DHT22;6146;48.128;11.476;2022-07-23T12:32:59;26.10;83.80
12166;DHT22;6146;48.128;11.476;2022-07-23T12:35:32;26.10;84.50
12166;DHT22;6146;48.128;11.476;2022-07-23T12:38:02;26.10;84.40
12166;DHT22;6146;48.128;11.476;2022-07-23T12:40:31;26.20;87.10
12166;DHT22;6146;48.128;11.476;2022-07-23T12:43:06;26.20;87.00
12166;DHT22;6146;48.128;11.476;2022-07-23T12:48:20;26.00;87.10
12166;DHT22;6146;48.128;11.476;2022-07-23T12:51:06;26.00;87.20
12166;DHT22;6146;48.128;11.476;2022-07-23T12:56:08;26.10;87.70
12166;DHT22;6146;48.128;11.476;2022-07-23T12:58:41;26.10;89.30
12166;DHT22;6146;48.128;11.476;2022-07-23T13:01:08;26.30;87.10
12166;DHT22;6146;48.128;11.476;2022-07-23T13:03:40;26.50;87.10
12166;DHT22;6146;48.128;11.476;2022-07-23T13:06:10;26.40;87.00
12166;DHT22;6146;48.128;11.476;2022-07-23T13:08:38;26.40;87.20
12166;DHT22;6146;48.128;11.476;2022-07-23T13:11:06;26.60;86.20
12166;DHT22;6146;48.128;11.476;2022-07-23T13:13:33;26.70;87.90
12166;DHT22;6146;48.128;11.476;2022-07-23T13:15:59;27.00;86.30
12166;DHT22;6146;48.128;11.476;2022-07-23T13:18:27;27.10;85.40
12166;DHT22;6146;48.128;11.476;2022-07-23T13:20:53;26.90;86.50
12166;DHT22;6146;48.128;11.476;2022-07-23T13:23:21;26.90;86.30
12166;DHT22;6146;48.128;11.476;2022-07-23T13:25:47;26.60;87.80
12166;DHT22;6146;48.128;11.476;2022-07-23T13:28:14;26.50;88.10
12166;DHT22;6146;48.128;11.476;2022-07-23T13:30:41;26.40;87.80
12166;DHT22;6146;48.128;11.476;2022-07-23T13:33:07;26.40;89.80
12166;DHT22;6146;48.128;11.476;2022-07-23T13:35:34;26.30;90.00
12166;DHT22;6146;48.128;11.476;2022-07-23T13:37:59;26.30;90.40
12166;DHT22;6146;48.128;11.476;2022-07-23T13:40:25;26.40;90.30
12166;DHT22;6146;48.128;11.476;2022-07-23T13:42:51;26.80;89.60
12166;DHT22;6146;48.128;11.476;2022-07-23T13:45:16;27.30;88.50
12166;DHT22;6146;48.128;11.476;2022-07-23T13:47:42;27.50;86.10
12166;DHT22;6146;48.128;11.476;2022-07-23T13:50:08;27.40;86.70
12166;DHT22;6146;48.128;11.476;2022-07-23T13:52:33;27.10;86.30
12166;DHT22;6146;48.128;11.476;2022-07-23T13:55:01;26.90;87.70
12166;DHT22;6146;48.128;11.476;2022-07-23T13:57:29;26.80;87.00
12166;DHT22;6146;48.128;11.476;2022-07-23T13:59:55;26.70;87.00
12166;DHT22;6146;48.128;11.476;2022-07-23T14:02:20;26.60;87.80
12166;DHT22;6146;48.128;11.476;2022-07-23T14:04:46;26.40;87.90
12166;DHT22;6146;48.128;11.476;2022-07-23T14:07:12;26.30;90.20
12166;DHT22;6146;48.128;11.476;2022-07-23T14:09:38;26.20;89.90
12166;DHT22;6146;48.128;11.476;2022-07-23T14:12:04;26.10;90.10
12166;DHT22;6146;48.128;11.476;2022-07-23T14:14:30;26.00;89.70
12166;DHT22;6146;48.128;11.476;2022-07-23T14:16:55;26.00;91.20
12166;DHT22;6146;48.128;11.476;2022-07-23T14:19:22;25.90;91.10
12166;DHT22;6146;48.128;11.476;2022-07-23T14:21:48;26.00;90.90
12166;DHT22;6146;48.128;11.476;2022-07-23T14:24:14;26.00;90.90
12166;DHT22;6146;48.128;11.476;2022-07-23T14:26:40;26.10;90.90
12166;DHT22;6146;48.128;11.476;2022-07-23T14:29:06;26.00;90.50
12166;DHT22;6146;48.128;11.476;2022-07-23T14:31:32;26.10;90.90
12166;DHT22;6146;48.128;11.476;2022-07-23T14:33:58;26.10;90.50
12166;DHT22;6146;48.128;11.476;2022-07-23T14:36:24;26.10;90.90
12166;DHT22;6146;48.128;11.476;2022-07-23T14:38:50;26.10;90.70
12166;DHT22;6146;48.128;11.476;2022-07-23T14:41:16;26.10;90.70
12166;DHT22;6146;48.128;11.476;2022-07-23T14:43:42;26.00;91.00
12166;DHT22;6146;48.128;11.476;2022-07-23T14:46:08;25.90;91.60
12166;DHT22;6146;48.128;11.476;2022-07-23T14:48:33;25.90;91.60
12166;DHT22;6146;48.128;11.476;2022-07-23T14:50:59;26.00;91.70
12166;DHT22;6146;48.128;11.476;2022-07-23T14:53:25;26.20;91.10
12166;DHT22;6146;48.128;11.476;2022-07-23T14:55:50;26.30;91.20
12166;DHT22;6146;48.128;11.476;2022-07-23T14:58:16;26.50;91.40
12166;DHT22;6146;48.128;11.476;2022-07-23T15:00:43;26.60;90.80
12166;DHT22;6146;48.128;11.476;2022-07-23T15:03:08;26.80;91.00
12166;DHT22;6146;48.128;11.476;2022-07-23T15:05:34;26.90;90.20
12166;DHT22;6146;48.128;11.476;2022-07-23T15:07:59;26.80;90.90
12166;DHT22;6146;48.128;11.476;2022-07-23T15:10:25;26.80;90.50
12166;DHT22;6146;48.128;11.476;2022-07-23T15:12:50;26.90;90.40
12166;DHT22;6146;48.128;11.476;2022-07-23T15:15:16;26.90;90.20
12166;DHT22;6146;48.128;11.476;2022-07-23T15:17:43;27.20;89.80
12166;DHT22;6146;48.128;11.476;2022-07-23T15:20:09;27.40;89.10
12166;DHT22;6146;48.128;11.476;2022-07-23T15:22:35;27.50;88.70
12166;DHT22;6146;48.128;11.476;2022-07-23T15:25:00;27.60;88.90
12166;DHT22;6146;48.128;11.476;2022-07-23T15:27:27;27.80;90.20
12166;DHT22;6146;48.128;11.476;2022-07-23T15:29:53;27.60;87.10
12166;DHT22;6146;48.128;11.476;2022-07-23T15:32:18;27.50;88.40
12166;DHT22;6146;48.128;11.476;2022-07-23T15:34:44;27.30;88.00
12166;DHT22;6146;48.128;11.476;2022-07-23T15:37:09;27.40;88.10
12166;DHT22;6146;48.128;11.476;2022-07-23T15:39:35;27.40;87.60
12166;DHT22;6146;48.128;11.476;2022-07-23T15:42:01;27.60;88.30
12166;DHT22;6146;48.128;11.476;2022-07-23T15:44:27;27.60;87.70
12166;DHT22;6146;48.128;11.476;2022-07-23T15:46:53;27.50;86.90
12166;DHT22;6146;48.128;11.476;2022-07-23T15:49:19;27.60;87.40
12166;DHT22;6146;48.128;11.476;2022-07-23T15:51:45;27.50;88.80
12166;DHT22;6146;48.128;11.476;2022-07-23T15:54:10;27.60;88.20
12166;DHT22;6146;48.128;11.476;2022-07-23T15:56:36;27.60;88.20
12166;DHT22;6146;48.128;11.476;2022-07-23T15:59:01;27.50;88.10
12166;DHT22;6146;48.128;11.476;2022-07-23T16:01:27;27.40;87.80
12166;DHT22;6146;48.128;11.476;2022-07-23T16:03:55;27.40;89.20
12166;DHT22;6146;48.128;11.476;2022-07-23T16:06:21;27.30;88.70
12166;DHT22;6146;48.128;11.476;2022-07-23T16:08:47;27.30;90.10